To NAV CANADA Home Page Login to a new session Search on AWWS site Feedback and Comments Disclaimer Vers la page française équivalente Tips FAQ What's new on the site To the Forecasts and Observations / NOTAM section To "File a Flight Plan" website Publications and other links Update of the User's profile FIC Telephone Numbers My Weather Data Folder Route Weather Data Regional Weather Data Local Weather Data To the Forecasts and Observations / NOTAM section
Request Generated 07/26/2016 at 21:45:19 UTC . Weather information available at that time is displayed.

METAR/TAF

HAMILTON/ON    

METAR CYHM 262100Z 24007KT 15SM BKN058 29/15 A2998 RMK CU6 SLP149
DENSITY ALT 2400FT=
METAR CYHM 262000Z 28007KT 240V330 15SM SCT058 28/16 A2998 RMK CU4
SLP151 DENSITY ALT 2400FT=
METAR CYHM 261900Z 30009KT 220V320 15SM BKN052 28/15 A3000 RMK CU5
SLP157 DENSITY ALT 2300FT=

TAF CYHM 261738Z 2618/2718 30008KT P6SM SCT050
FM262300 32005KT P6SM SKC
BECMG 2710/2712 25008KT
FM271700 28012KT P6SM BKN060
RMK NXT FCST BY 270000Z=
Your time UTC time
Weather data provided by Environment Canada and NAV CANADA